sensor_id;sensor_type;location;lat;lon;timestamp;P1;durP1;ratioP1;P2;durP2;ratioP2
10465;SDS011;5280;42.600;23.556;2024-03-23T00:53:56;2.40;;;2.20;;
10465;SDS011;5280;42.600;23.556;2024-03-23T00:56:23;3.23;;;2.70;;
10465;SDS011;5280;42.600;23.556;2024-03-23T00:58:50;2.53;;;2.33;;
10465;SDS011;5280;42.600;23.556;2024-03-23T01:01:16;2.73;;;2.53;;
10465;SDS011;5280;42.600;23.556;2024-03-23T01:03:43;3.00;;;2.77;;
10465;SDS011;5280;42.600;23.556;2024-03-23T01:06:09;3.23;;;2.93;;
10465;SDS011;5280;42.600;23.556;2024-03-23T01:08:36;2.83;;;2.60;;
10465;SDS011;5280;42.600;23.556;2024-03-23T01:11:03;3.17;;;2.60;;
10465;SDS011;5280;42.600;23.556;2024-03-23T01:13:30;3.07;;;2.77;;
10465;SDS011;5280;42.600;23.556;2024-03-23T01:15:56;2.90;;;2.70;;
10465;SDS011;5280;42.600;23.556;2024-03-23T01:18:24;3.13;;;2.83;;
10465;SDS011;5280;42.600;23.556;2024-03-23T01:20:51;4.17;;;2.80;;
10465;SDS011;5280;42.600;23.556;2024-03-23T01:23:18;4.50;;;2.77;;
10465;SDS011;5280;42.600;23.556;2024-03-23T01:25:50;2.80;;;2.50;;
10465;SDS011;5280;42.600;23.556;2024-03-23T01:28:19;3.83;;;2.90;;
10465;SDS011;5280;42.600;23.556;2024-03-23T01:30:45;5.27;;;3.00;;
10465;SDS011;5280;42.600;23.556;2024-03-23T01:33:12;3.53;;;2.90;;
10465;SDS011;5280;42.600;23.556;2024-03-23T01:35:39;3.00;;;2.77;;
10465;SDS011;5280;42.600;23.556;2024-03-23T01:38:06;4.03;;;3.13;;
10465;SDS011;5280;42.600;23.556;2024-03-23T01:40:32;3.03;;;2.73;;
10465;SDS011;5280;42.600;23.556;2024-03-23T01:43:04;3.27;;;2.90;;
10465;SDS011;5280;42.600;23.556;2024-03-23T01:45:34;3.60;;;3.27;;
10465;SDS011;5280;42.600;23.556;2024-03-23T01:48:01;3.00;;;2.73;;
10465;SDS011;5280;42.600;23.556;2024-03-23T01:50:28;3.27;;;2.97;;
10465;SDS011;5280;42.600;23.556;2024-03-23T01:52:58;2.80;;;2.60;;
10465;SDS011;5280;42.600;23.556;2024-03-23T01:55:25;3.53;;;3.00;;
10465;SDS011;5280;42.600;23.556;2024-03-23T01:57:52;3.43;;;2.90;;
10465;SDS011;5280;42.600;23.556;2024-03-23T02:00:18;2.97;;;2.67;;
10465;SDS011;5280;42.600;23.556;2024-03-23T02:02:46;4.20;;;2.90;;
10465;SDS011;5280;42.600;23.556;2024-03-23T02:05:12;3.53;;;2.80;;
10465;SDS011;5280;42.600;23.556;2024-03-23T02:07:40;3.00;;;2.70;;
10465;SDS011;5280;42.600;23.556;2024-03-23T02:10:07;3.03;;;2.73;;
10465;SDS011;5280;42.600;23.556;2024-03-23T02:12:34;2.50;;;2.27;;
10465;SDS011;5280;42.600;23.556;2024-03-23T02:15:01;3.20;;;2.90;;
10465;SDS011;5280;42.600;23.556;2024-03-23T02:17:28;2.90;;;2.63;;
10465;SDS011;5280;42.600;23.556;2024-03-23T02:19:57;2.90;;;2.67;;
10465;SDS011;5280;42.600;23.556;2024-03-23T02:22:24;4.40;;;2.90;;
10465;SDS011;5280;42.600;23.556;2024-03-23T02:24:51;3.63;;;3.00;;
10465;SDS011;5280;42.600;23.556;2024-03-23T02:27:18;3.43;;;2.70;;
10465;SDS011;5280;42.600;23.556;2024-03-23T02:29:44;3.33;;;2.97;;
10465;SDS011;5280;42.600;23.556;2024-03-23T02:32:11;2.83;;;2.37;;
10465;SDS011;5280;42.600;23.556;2024-03-23T02:34:36;2.93;;;2.63;;
10465;SDS011;5280;42.600;23.556;2024-03-23T02:37:09;3.80;;;2.73;;
10465;SDS011;5280;42.600;23.556;2024-03-23T02:39:36;3.43;;;2.93;;
10465;SDS011;5280;42.600;23.556;2024-03-23T02:42:04;3.07;;;2.77;;
10465;SDS011;5280;42.600;23.556;2024-03-23T02:44:31;3.83;;;2.90;;
10465;SDS011;5280;42.600;23.556;2024-03-23T02:46:58;5.60;;;3.20;;
10465;SDS011;5280;42.600;23.556;2024-03-23T02:49:23;3.20;;;2.87;;
10465;SDS011;5280;42.600;23.556;2024-03-23T02:51:51;3.87;;;3.00;;
10465;SDS011;5280;42.600;23.556;2024-03-23T02:54:17;4.60;;;3.20;;
10465;SDS011;5280;42.600;23.556;2024-03-23T02:56:44;2.87;;;2.67;;
10465;SDS011;5280;42.600;23.556;2024-03-23T02:59:11;3.70;;;3.17;;
10465;SDS011;5280;42.600;23.556;2024-03-23T03:01:38;2.80;;;2.57;;
10465;SDS011;5280;42.600;23.556;2024-03-23T03:04:04;4.13;;;2.73;;
10465;SDS011;5280;42.600;23.556;2024-03-23T03:06:31;3.00;;;2.70;;
10465;SDS011;5280;42.600;23.556;2024-03-23T03:08:57;3.17;;;2.67;;
10465;SDS011;5280;42.600;23.556;2024-03-23T03:11:24;3.50;;;3.13;;
10465;SDS011;5280;42.600;23.556;2024-03-23T03:13:50;4.03;;;3.40;;
10465;SDS011;5280;42.600;23.556;2024-03-23T03:16:18;3.40;;;3.00;;
10465;SDS011;5280;42.600;23.556;2024-03-23T03:18:44;3.23;;;2.87;;
10465;SDS011;5280;42.600;23.556;2024-03-23T03:21:11;4.37;;;3.07;;
10465;SDS011;5280;42.600;23.556;2024-03-23T03:23:37;4.00;;;3.20;;
10465;SDS011;5280;42.600;23.556;2024-03-23T03:26:05;4.37;;;3.40;;
10465;SDS011;5280;42.600;23.556;2024-03-23T03:28:31;4.13;;;3.00;;
10465;SDS011;5280;42.600;23.556;2024-03-23T03:30:58;3.80;;;3.40;;
10465;SDS011;5280;42.600;23.556;2024-03-23T03:33:26;4.33;;;2.93;;
10465;SDS011;5280;42.600;23.556;2024-03-23T03:35:53;4.43;;;3.20;;
10465;SDS011;5280;42.600;23.556;2024-03-23T03:38:19;4.13;;;3.60;;
10465;SDS011;5280;42.600;23.556;2024-03-23T03:40:46;4.07;;;3.50;;
10465;SDS011;5280;42.600;23.556;2024-03-23T03:43:12;4.07;;;3.20;;
10465;SDS011;5280;42.600;23.556;2024-03-23T03:45:39;3.80;;;3.40;;
10465;SDS011;5280;42.600;23.556;2024-03-23T03:48:05;4.07;;;3.63;;
10465;SDS011;5280;42.600;23.556;2024-03-23T03:50:34;4.77;;;3.40;;
10465;SDS011;5280;42.600;23.556;2024-03-23T03:53:00;5.13;;;3.40;;
10465;SDS011;5280;42.600;23.556;2024-03-23T03:55:27;4.03;;;3.33;;
10465;SDS011;5280;42.600;23.556;2024-03-23T03:57:53;5.27;;;3.60;;
10465;SDS011;5280;42.600;23.556;2024-03-23T04:00:20;4.67;;;3.77;;
10465;SDS011;5280;42.600;23.556;2024-03-23T04:02:46;7.07;;;3.73;;
10465;SDS011;5280;42.600;23.556;2024-03-23T04:05:13;3.93;;;3.50;;
10465;SDS011;5280;42.600;23.556;2024-03-23T04:07:40;3.70;;;3.20;;
10465;SDS011;5280;42.600;23.556;2024-03-23T04:10:09;5.17;;;3.10;;
10465;SDS011;5280;42.600;23.556;2024-03-23T04:12:35;3.87;;;3.57;;
10465;SDS011;5280;42.600;23.556;2024-03-23T04:15:02;5.23;;;3.70;;
10465;SDS011;5280;42.600;23.556;2024-03-23T04:17:29;3.47;;;3.00;;
10465;SDS011;5280;42.600;23.556;2024-03-23T04:19:59;3.33;;;2.93;;
10465;SDS011;5280;42.600;23.556;2024-03-23T04:22:26;4.47;;;2.93;;
10465;SDS011;5280;42.600;23.556;2024-03-23T04:24:54;3.93;;;3.40;;
10465;SDS011;5280;42.600;23.556;2024-03-23T04:27:21;6.27;;;3.67;;
10465;SDS011;5280;42.600;23.556;2024-03-23T04:29:48;4.40;;;3.23;;
10465;SDS011;5280;42.600;23.556;2024-03-23T04:32:14;5.03;;;3.70;;
10465;SDS011;5280;42.600;23.556;2024-03-23T04:34:41;3.70;;;3.40;;
10465;SDS011;5280;42.600;23.556;2024-03-23T04:37:07;5.07;;;3.97;;
10465;SDS011;5280;42.600;23.556;2024-03-23T04:39:34;5.17;;;3.53;;
10465;SDS011;5280;42.600;23.556;2024-03-23T04:42:02;4.47;;;3.10;;
10465;SDS011;5280;42.600;23.556;2024-03-23T04:44:30;4.20;;;3.50;;
10465;SDS011;5280;42.600;23.556;2024-03-23T04:46:57;3.87;;;3.43;;
10465;SDS011;5280;42.600;23.556;2024-03-23T04:49:24;4.87;;;3.37;;
10465;SDS011;5280;42.600;23.556;2024-03-23T04:51:51;3.10;;;2.80;;
10465;SDS011;5280;42.600;23.556;2024-03-23T04:54:18;3.33;;;3.03;;
10465;SDS011;5280;42.600;23.556;2024-03-23T04:56:45;4.73;;;3.33;;
10465;SDS011;5280;42.600;23.556;2024-03-23T04:59:13;4.97;;;3.20;;
10465;SDS011;5280;42.600;23.556;2024-03-23T05:01:39;4.00;;;3.17;;
10465;SDS011;5280;42.600;23.556;2024-03-23T05:04:07;3.53;;;2.90;;
10465;SDS011;5280;42.600;23.556;2024-03-23T05:06:33;2.93;;;2.57;;
10465;SDS011;5280;42.600;23.556;2024-03-23T05:09:00;4.50;;;3.10;;
10465;SDS011;5280;42.600;23.556;2024-03-23T05:11:28;5.07;;;2.80;;
10465;SDS011;5280;42.600;23.556;2024-03-23T05:13:55;3.93;;;2.97;;
10465;SDS011;5280;42.600;23.556;2024-03-23T05:16:23;2.93;;;2.70;;
10465;SDS011;5280;42.600;23.556;2024-03-23T05:18:49;3.13;;;2.70;;
10465;SDS011;5280;42.600;23.556;2024-03-23T05:21:16;3.13;;;2.83;;
10465;SDS011;5280;42.600;23.556;2024-03-23T05:23:42;3.37;;;2.87;;
10465;SDS011;5280;42.600;23.556;2024-03-23T05:26:09;6.03;;;2.70;;
10465;SDS011;5280;42.600;23.556;2024-03-23T05:28:35;2.80;;;2.60;;
10465;SDS011;5280;42.600;23.556;2024-03-23T05:31:02;4.07;;;3.10;;
10465;SDS011;5280;42.600;23.556;2024-03-23T05:33:30;3.73;;;2.57;;
10465;SDS011;5280;42.600;23.556;2024-03-23T05:35:57;3.30;;;2.73;;
10465;SDS011;5280;42.600;23.556;2024-03-23T05:38:24;3.80;;;3.10;;
10465;SDS011;5280;42.600;23.556;2024-03-23T05:40:54;3.73;;;3.27;;
10465;SDS011;5280;42.600;23.556;2024-03-23T05:43:21;3.33;;;3.03;;
10465;SDS011;5280;42.600;23.556;2024-03-23T05:45:52;4.90;;;3.33;;
10465;SDS011;5280;42.600;23.556;2024-03-23T05:48:18;5.00;;;4.20;;
10465;SDS011;5280;42.600;23.556;2024-03-23T05:50:47;4.27;;;3.87;;
10465;SDS011;5280;42.600;23.556;2024-03-23T05:53:12;9.93;;;6.40;;
10465;SDS011;5280;42.600;23.556;2024-03-23T05:55:40;4.10;;;3.70;;
10465;SDS011;5280;42.600;23.556;2024-03-23T05:58:06;5.43;;;4.07;;
10465;SDS011;5280;42.600;23.556;2024-03-23T06:00:33;12.60;;;9.27;;
10465;SDS011;5280;42.600;23.556;2024-03-23T06:02:59;9.43;;;7.37;;
10465;SDS011;5280;42.600;23.556;2024-03-23T06:05:26;7.27;;;4.60;;
10465;SDS011;5280;42.600;23.556;2024-03-23T06:07:53;6.43;;;4.73;;
10465;SDS011;5280;42.600;23.556;2024-03-23T06:10:20;6.77;;;5.10;;
10465;SDS011;5280;42.600;23.556;2024-03-23T06:12:46;5.90;;;5.10;;
10465;SDS011;5280;42.600;23.556;2024-03-23T06:15:14;7.43;;;5.63;;
10465;SDS011;5280;42.600;23.556;2024-03-23T06:17:40;6.83;;;5.80;;
10465;SDS011;5280;42.600;23.556;2024-03-23T06:20:07;7.80;;;5.50;;
10465;SDS011;5280;42.600;23.556;2024-03-23T06:22:35;6.70;;;6.00;;
10465;SDS011;5280;42.600;23.556;2024-03-23T06:25:04;10.33;;;6.57;;
10465;SDS011;5280;42.600;23.556;2024-03-23T06:27:30;8.23;;;6.67;;
10465;SDS011;5280;42.600;23.556;2024-03-23T06:29:58;8.70;;;6.97;;
10465;SDS011;5280;42.600;23.556;2024-03-23T06:32:23;7.83;;;6.43;;
10465;SDS011;5280;42.600;23.556;2024-03-23T06:34:50;10.53;;;7.93;;
10465;SDS011;5280;42.600;23.556;2024-03-23T06:37:16;11.60;;;8.03;;
10465;SDS011;5280;42.600;23.556;2024-03-23T06:39:45;12.43;;;8.33;;
10465;SDS011;5280;42.600;23.556;2024-03-23T06:42:13;10.57;;;6.87;;
10465;SDS011;5280;42.600;23.556;2024-03-23T06:44:40;9.77;;;8.53;;
10465;SDS011;5280;42.600;23.556;2024-03-23T06:47:06;9.67;;;7.53;;
10465;SDS011;5280;42.600;23.556;2024-03-23T06:49:32;11.13;;;8.80;;
10465;SDS011;5280;42.600;23.556;2024-03-23T06:51:58;10.40;;;7.77;;
10465;SDS011;5280;42.600;23.556;2024-03-23T06:54:26;14.27;;;8.57;;
10465;SDS011;5280;42.600;23.556;2024-03-23T06:56:52;9.60;;;7.20;;
10465;SDS011;5280;42.600;23.556;2024-03-23T06:59:20;8.43;;;7.53;;
10465;SDS011;5280;42.600;23.556;2024-03-23T07:01:46;9.87;;;8.07;;
10465;SDS011;5280;42.600;23.556;2024-03-23T07:04:13;9.20;;;7.90;;
10465;SDS011;5280;42.600;23.556;2024-03-23T07:06:42;11.63;;;7.53;;
10465;SDS011;5280;42.600;23.556;2024-03-23T07:09:09;12.07;;;7.80;;
10465;SDS011;5280;42.600;23.556;2024-03-23T07:11:35;10.57;;;7.97;;
10465;SDS011;5280;42.600;23.556;2024-03-23T07:14:02;12.87;;;8.10;;
10465;SDS011;5280;42.600;23.556;2024-03-23T07:16:30;11.57;;;8.40;;
10465;SDS011;5280;42.600;23.556;2024-03-23T07:18:57;8.67;;;6.67;;
10465;SDS011;5280;42.600;23.556;2024-03-23T07:21:23;9.03;;;7.40;;
10465;SDS011;5280;42.600;23.556;2024-03-23T07:23:51;9.20;;;7.57;;
10465;SDS011;5280;42.600;23.556;2024-03-23T07:26:17;9.47;;;6.83;;
10465;SDS011;5280;42.600;23.556;2024-03-23T07:28:44;10.73;;;7.20;;
10465;SDS011;5280;42.600;23.556;2024-03-23T07:31:11;9.10;;;6.93;;
10465;SDS011;5280;42.600;23.556;2024-03-23T07:33:43;8.57;;;6.33;;
10465;SDS011;5280;42.600;23.556;2024-03-23T07:36:10;8.03;;;6.93;;
10465;SDS011;5280;42.600;23.556;2024-03-23T07:38:37;11.70;;;7.30;;
10465;SDS011;5280;42.600;23.556;2024-03-23T07:41:06;9.37;;;7.00;;
10465;SDS011;5280;42.600;23.556;2024-03-23T07:43:34;10.50;;;7.10;;
10465;SDS011;5280;42.600;23.556;2024-03-23T07:46:00;9.40;;;7.10;;
10465;SDS011;5280;42.600;23.556;2024-03-23T07:48:28;7.93;;;6.80;;
10465;SDS011;5280;42.600;23.556;2024-03-23T07:50:59;10.33;;;6.70;;
10465;SDS011;5280;42.600;23.556;2024-03-23T07:53:27;6.70;;;5.97;;
10465;SDS011;5280;42.600;23.556;2024-03-23T07:55:56;7.60;;;6.63;;
10465;SDS011;5280;42.600;23.556;2024-03-23T07:58:24;7.97;;;6.50;;
10465;SDS011;5280;42.600;23.556;2024-03-23T08:00:51;6.50;;;5.83;;
10465;SDS011;5280;42.600;23.556;2024-03-23T08:03:19;8.00;;;6.83;;
10465;SDS011;5280;42.600;23.556;2024-03-23T08:05:45;7.73;;;6.73;;
10465;SDS011;5280;42.600;23.556;2024-03-23T08:08:13;8.07;;;6.47;;
10465;SDS011;5280;42.600;23.556;2024-03-23T08:10:47;7.37;;;5.80;;
10465;SDS011;5280;42.600;23.556;2024-03-23T08:13:14;7.30;;;6.13;;
10465;SDS011;5280;42.600;23.556;2024-03-23T08:15:40;6.57;;;5.80;;
10465;SDS011;5280;42.600;23.556;2024-03-23T08:18:07;7.60;;;6.40;;
10465;SDS011;5280;42.600;23.556;2024-03-23T08:20:33;7.60;;;6.03;;
10465;SDS011;5280;42.600;23.556;2024-03-23T08:23:00;11.57;;;6.70;;
10465;SDS011;5280;42.600;23.556;2024-03-23T08:25:30;8.23;;;6.57;;
10465;SDS011;5280;42.600;23.556;2024-03-23T08:27:57;9.40;;;6.00;;
10465;SDS011;5280;42.600;23.556;2024-03-23T08:30:23;7.90;;;6.07;;
10465;SDS011;5280;42.600;23.556;2024-03-23T08:32:50;6.47;;;5.80;;
10465;SDS011;5280;42.600;23.556;2024-03-23T08:35:17;9.63;;;6.03;;
10465;SDS011;5280;42.600;23.556;2024-03-23T08:37:45;8.20;;;5.90;;
10465;SDS011;5280;42.600;23.556;2024-03-23T08:40:12;6.33;;;5.67;;
10465;SDS011;5280;42.600;23.556;2024-03-23T08:42:40;8.23;;;6.43;;
10465;SDS011;5280;42.600;23.556;2024-03-23T08:45:07;9.13;;;6.10;;
10465;SDS011;5280;42.600;23.556;2024-03-23T08:47:34;10.33;;;6.03;;
10465;SDS011;5280;42.600;23.556;2024-03-23T08:50:02;7.27;;;6.00;;
10465;SDS011;5280;42.600;23.556;2024-03-23T08:52:28;6.60;;;5.90;;
10465;SDS011;5280;42.600;23.556;2024-03-23T08:54:55;7.23;;;6.17;;
10465;SDS011;5280;42.600;23.556;2024-03-23T08:57:21;6.73;;;6.03;;
10465;SDS011;5280;42.600;23.556;2024-03-23T08:59:49;7.47;;;5.67;;
10465;SDS011;5280;42.600;23.556;2024-03-23T09:02:15;6.97;;;5.87;;
10465;SDS011;5280;42.600;23.556;2024-03-23T09:04:43;6.63;;;5.90;;
10465;SDS011;5280;42.600;23.556;2024-03-23T09:07:09;9.50;;;6.30;;
10465;SDS011;5280;42.600;23.556;2024-03-23T09:09:37;7.47;;;5.53;;
10465;SDS011;5280;42.600;23.556;2024-03-23T09:12:04;6.70;;;5.50;;
10465;SDS011;5280;42.600;23.556;2024-03-23T09:14:32;6.77;;;6.07;;
10465;SDS011;5280;42.600;23.556;2024-03-23T09:16:59;6.83;;;5.73;;
10465;SDS011;5280;42.600;23.556;2024-03-23T09:19:27;7.17;;;5.27;;
10465;SDS011;5280;42.600;23.556;2024-03-23T09:21:54;6.20;;;5.60;;
10465;SDS011;5280;42.600;23.556;2024-03-23T09:24:21;8.60;;;5.83;;
10465;SDS011;5280;42.600;23.556;2024-03-23T09:26:48;5.20;;;4.70;;
10465;SDS011;5280;42.600;23.556;2024-03-23T09:29:18;8.80;;;5.63;;
10465;SDS011;5280;42.600;23.556;2024-03-23T09:31:44;7.33;;;6.07;;
10465;SDS011;5280;42.600;23.556;2024-03-23T09:34:13;5.83;;;5.30;;
10465;SDS011;5280;42.600;23.556;2024-03-23T09:36:39;7.63;;;5.73;;
10465;SDS011;5280;42.600;23.556;2024-03-23T09:39:06;7.00;;;5.67;;
10465;SDS011;5280;42.600;23.556;2024-03-23T09:41:34;4.97;;;4.20;;
10465;SDS011;5280;42.600;23.556;2024-03-23T09:44:01;5.70;;;5.20;;
10465;SDS011;5280;42.600;23.556;2024-03-23T09:46:27;6.27;;;4.80;;
10465;SDS011;5280;42.600;23.556;2024-03-23T09:48:55;5.03;;;4.50;;
10465;SDS011;5280;42.600;23.556;2024-03-23T09:51:23;4.57;;;4.17;;
10465;SDS011;5280;42.600;23.556;2024-03-23T09:53:50;6.17;;;4.90;;
10465;SDS011;5280;42.600;23.556;2024-03-23T09:56:17;6.07;;;4.53;;
10465;SDS011;5280;42.600;23.556;2024-03-23T09:58:44;6.67;;;4.90;;
10465;SDS011;5280;42.600;23.556;2024-03-23T10:01:10;7.03;;;5.50;;
10465;SDS011;5280;42.600;23.556;2024-03-23T10:03:44;5.13;;;4.60;;
10465;SDS011;5280;42.600;23.556;2024-03-23T10:06:10;4.67;;;3.93;;
10465;SDS011;5280;42.600;23.556;2024-03-23T10:08:49;5.60;;;4.37;;
10465;SDS011;5280;42.600;23.556;2024-03-23T10:11:16;5.60;;;4.17;;
10465;SDS011;5280;42.600;23.556;2024-03-23T10:13:44;5.27;;;4.60;;
10465;SDS011;5280;42.600;23.556;2024-03-23T10:16:11;4.70;;;4.23;;
10465;SDS011;5280;42.600;23.556;2024-03-23T10:18:47;5.83;;;3.97;;
10465;SDS011;5280;42.600;23.556;2024-03-23T10:21:14;5.17;;;4.77;;
10465;SDS011;5280;42.600;23.556;2024-03-23T10:23:42;7.03;;;4.27;;
10465;SDS011;5280;42.600;23.556;2024-03-23T10:26:18;5.30;;;4.60;;
10465;SDS011;5280;42.600;23.556;2024-03-23T10:28:53;4.63;;;4.23;;
10465;SDS011;5280;42.600;23.556;2024-03-23T10:31:22;4.40;;;4.03;;
10465;SDS011;5280;42.600;23.556;2024-03-23T10:33:48;5.60;;;4.10;;
10465;SDS011;5280;42.600;23.556;2024-03-23T10:36:15;5.83;;;4.50;;
10465;SDS011;5280;42.600;23.556;2024-03-23T10:38:44;5.43;;;4.30;;
10465;SDS011;5280;42.600;23.556;2024-03-23T10:41:11;6.10;;;5.47;;
10465;SDS011;5280;42.600;23.556;2024-03-23T10:43:37;4.63;;;4.23;;
10465;SDS011;5280;42.600;23.556;2024-03-23T10:46:05;5.20;;;4.70;;
10465;SDS011;5280;42.600;23.556;2024-03-23T10:48:32;5.47;;;4.73;;
10465;SDS011;5280;42.600;23.556;2024-03-23T10:50:59;5.73;;;4.90;;
10465;SDS011;5280;42.600;23.556;2024-03-23T10:53:26;7.17;;;4.63;;
10465;SDS011;5280;42.600;23.556;2024-03-23T10:55:55;5.60;;;4.17;;
10465;SDS011;5280;42.600;23.556;2024-03-23T10:58:23;4.73;;;4.33;;
10465;SDS011;5280;42.600;23.556;2024-03-23T11:00:53;4.97;;;4.50;;
10465;SDS011;5280;42.600;23.556;2024-03-23T11:03:30;4.67;;;4.07;;
10465;SDS011;5280;42.600;23.556;2024-03-23T11:06:01;5.00;;;4.37;;
10465;SDS011;5280;42.600;23.556;2024-03-23T11:08:34;5.47;;;4.47;;
10465;SDS011;5280;42.600;23.556;2024-03-23T11:11:13;5.33;;;4.80;;
10465;SDS011;5280;42.600;23.556;2024-03-23T11:13:40;4.80;;;4.40;;
10465;SDS011;5280;42.600;23.556;2024-03-23T11:16:13;4.53;;;4.13;;
10465;SDS011;5280;42.600;23.556;2024-03-23T11:18:40;4.43;;;4.03;;
10465;SDS011;5280;42.600;23.556;2024-03-23T11:21:08;4.40;;;4.00;;
10465;SDS011;5280;42.600;23.556;2024-03-23T11:23:35;4.43;;;4.03;;
10465;SDS011;5280;42.600;23.556;2024-03-23T11:26:02;6.43;;;3.73;;
10465;SDS011;5280;42.600;23.556;2024-03-23T11:28:34;4.90;;;4.20;;
10465;SDS011;5280;42.600;23.556;2024-03-23T11:31:00;3.93;;;3.53;;
10465;SDS011;5280;42.600;23.556;2024-03-23T11:33:26;4.00;;;3.57;;
10465;SDS011;5280;42.600;23.556;2024-03-23T11:35:54;4.53;;;3.97;;
10465;SDS011;5280;42.600;23.556;2024-03-23T11:38:20;4.90;;;3.57;;
10465;SDS011;5280;42.600;23.556;2024-03-23T11:40:48;4.00;;;3.70;;
10465;SDS011;5280;42.600;23.556;2024-03-23T11:43:15;4.20;;;3.43;;
10465;SDS011;5280;42.600;23.556;2024-03-23T11:45:46;4.40;;;3.27;;
10465;SDS011;5280;42.600;23.556;2024-03-23T11:48:13;4.70;;;3.60;;
10465;SDS011;5280;42.600;23.556;2024-03-23T11:50:43;4.07;;;3.67;;
10465;SDS011;5280;42.600;23.556;2024-03-23T11:53:13;5.00;;;3.30;;
10465;SDS011;5280;42.600;23.556;2024-03-23T11:55:42;3.87;;;3.40;;
10465;SDS011;5280;42.600;23.556;2024-03-23T11:58:09;3.50;;;3.20;;
10465;SDS011;5280;42.600;23.556;2024-03-23T12:00:37;3.47;;;3.20;;
10465;SDS011;5280;42.600;23.556;2024-03-23T12:03:05;3.63;;;3.33;;
10465;SDS011;5280;42.600;23.556;2024-03-23T12:05:32;3.83;;;3.50;;
10465;SDS011;5280;42.600;23.556;2024-03-23T12:11:05;6.10;;;3.00;;
10465;SDS011;5280;42.600;23.556;2024-03-23T12:13:32;3.50;;;3.00;;
10465;SDS011;5280;42.600;23.556;2024-03-23T12:16:08;3.73;;;2.93;;
10465;SDS011;5280;42.600;23.556;2024-03-23T12:18:36;3.63;;;3.23;;
10465;SDS011;5280;42.600;23.556;2024-03-23T12:21:04;5.73;;;2.80;;
10465;SDS011;5280;42.600;23.556;2024-03-23T12:23:30;3.07;;;2.87;;
10465;SDS011;5280;42.600;23.556;2024-03-23T12:26:00;4.37;;;2.93;;
10465;SDS011;5280;42.600;23.556;2024-03-23T12:28:26;4.50;;;3.30;;
10465;SDS011;5280;42.600;23.556;2024-03-23T12:30:53;3.97;;;3.33;;
10465;SDS011;5280;42.600;23.556;2024-03-23T12:33:20;5.03;;;2.93;;
10465;SDS011;5280;42.600;23.556;2024-03-23T12:35:48;4.97;;;2.73;;
10465;SDS011;5280;42.600;23.556;2024-03-23T12:38:15;3.10;;;2.90;;
10465;SDS011;5280;42.600;23.556;2024-03-23T12:40:45;4.57;;;2.83;;
10465;SDS011;5280;42.600;23.556;2024-03-23T12:43:12;3.70;;;3.30;;
10465;SDS011;5280;42.600;23.556;2024-03-23T12:45:39;3.57;;;3.27;;
10465;SDS011;5280;42.600;23.556;2024-03-23T12:48:06;5.17;;;3.33;;
10465;SDS011;5280;42.600;23.556;2024-03-23T12:50:33;4.40;;;3.03;;
10465;SDS011;5280;42.600;23.556;2024-03-23T12:53:00;5.60;;;2.97;;
10465;SDS011;5280;42.600;23.556;2024-03-23T12:55:27;6.27;;;3.13;;
10465;SDS011;5280;42.600;23.556;2024-03-23T12:57:53;4.20;;;2.93;;
10465;SDS011;5280;42.600;23.556;2024-03-23T13:00:20;3.73;;;3.17;;
10465;SDS011;5280;42.600;23.556;2024-03-23T13:02:46;3.00;;;2.80;;
10465;SDS011;5280;42.600;23.556;2024-03-23T13:05:13;9.43;;;3.60;;
10465;SDS011;5280;42.600;23.556;2024-03-23T13:07:39;3.20;;;2.90;;
10465;SDS011;5280;42.600;23.556;2024-03-23T13:10:07;3.87;;;3.47;;
10465;SDS011;5280;42.600;23.556;2024-03-23T13:12:34;5.80;;;3.00;;
10465;SDS011;5280;42.600;23.556;2024-03-23T13:15:01;3.53;;;3.07;;
10465;SDS011;5280;42.600;23.556;2024-03-23T13:17:27;3.27;;;3.07;;
10465;SDS011;5280;42.600;23.556;2024-03-23T13:19:54;3.20;;;2.90;;
10465;SDS011;5280;42.600;23.556;2024-03-23T13:22:21;3.40;;;3.10;;
10465;SDS011;5280;42.600;23.556;2024-03-23T13:24:48;5.07;;;3.10;;
10465;SDS011;5280;42.600;23.556;2024-03-23T13:27:15;3.40;;;3.10;;
10465;SDS011;5280;42.600;23.556;2024-03-23T13:29:42;5.50;;;3.20;;
10465;SDS011;5280;42.600;23.556;2024-03-23T13:32:08;4.50;;;3.30;;
10465;SDS011;5280;42.600;23.556;2024-03-23T13:34:35;4.63;;;3.10;;
10465;SDS011;5280;42.600;23.556;2024-03-23T13:37:01;25.00;;;4.67;;
10465;SDS011;5280;42.600;23.556;2024-03-23T13:39:28;3.53;;;3.23;;
10465;SDS011;5280;42.600;23.556;2024-03-23T13:41:55;6.40;;;3.30;;
10465;SDS011;5280;42.600;23.556;2024-03-23T13:44:24;3.03;;;2.73;;
10465;SDS011;5280;42.600;23.556;2024-03-23T13:46:50;3.70;;;3.10;;
10465;SDS011;5280;42.600;23.556;2024-03-23T13:49:20;4.03;;;3.33;;
10465;SDS011;5280;42.600;23.556;2024-03-23T13:51:51;4.57;;;3.43;;
10465;SDS011;5280;42.600;23.556;2024-03-23T13:54:18;5.77;;;3.67;;
10465;SDS011;5280;42.600;23.556;2024-03-23T13:56:44;4.63;;;3.17;;
10465;SDS011;5280;42.600;23.556;2024-03-23T13:59:11;4.83;;;3.43;;
10465;SDS011;5280;42.600;23.556;2024-03-23T14:01:38;6.50;;;3.70;;
10465;SDS011;5280;42.600;23.556;2024-03-23T14:04:05;17.97;;;15.00;;
10465;SDS011;5280;42.600;23.556;2024-03-23T14:06:31;8.40;;;7.10;;
10465;SDS011;5280;42.600;23.556;2024-03-23T14:08:58;5.17;;;3.90;;
10465;SDS011;5280;42.600;23.556;2024-03-23T14:11:24;4.27;;;3.70;;
10465;SDS011;5280;42.600;23.556;2024-03-23T14:13:53;5.70;;;4.43;;
10465;SDS011;5280;42.600;23.556;2024-03-23T14:16:19;5.80;;;3.87;;
10465;SDS011;5280;42.600;23.556;2024-03-23T14:18:48;6.23;;;4.20;;
10465;SDS011;5280;42.600;23.556;2024-03-23T14:21:14;5.10;;;4.60;;
10465;SDS011;5280;42.600;23.556;2024-03-23T14:23:40;6.83;;;5.83;;
10465;SDS011;5280;42.600;23.556;2024-03-23T14:26:06;6.17;;;5.57;;
10465;SDS011;5280;42.600;23.556;2024-03-23T14:28:33;5.47;;;4.83;;
10465;SDS011;5280;42.600;23.556;2024-03-23T14:31:00;4.63;;;3.60;;
10465;SDS011;5280;42.600;23.556;2024-03-23T14:33:28;4.00;;;3.70;;
10465;SDS011;5280;42.600;23.556;2024-03-23T14:35:56;5.67;;;3.83;;
10465;SDS011;5280;42.600;23.556;2024-03-23T14:38:23;5.33;;;3.93;;
10465;SDS011;5280;42.600;23.556;2024-03-23T14:40:50;4.97;;;4.30;;
10465;SDS011;5280;42.600;23.556;2024-03-23T14:43:17;6.07;;;4.50;;
10465;SDS011;5280;42.600;23.556;2024-03-23T14:45:49;4.50;;;3.80;;
10465;SDS011;5280;42.600;23.556;2024-03-23T14:48:33;4.63;;;3.97;;
10465;SDS011;5280;42.600;23.556;2024-03-23T14:51:01;5.67;;;3.53;;
10465;SDS011;5280;42.600;23.556;2024-03-23T14:53:30;6.33;;;4.33;;
10465;SDS011;5280;42.600;23.556;2024-03-23T14:55:56;4.50;;;3.63;;
10465;SDS011;5280;42.600;23.556;2024-03-23T14:58:25;4.70;;;3.90;;
10465;SDS011;5280;42.600;23.556;2024-03-23T15:00:51;5.83;;;4.10;;
10465;SDS011;5280;42.600;23.556;2024-03-23T15:03:18;5.30;;;3.83;;
10465;SDS011;5280;42.600;23.556;2024-03-23T15:05:51;4.90;;;4.40;;
10465;SDS011;5280;42.600;23.556;2024-03-23T15:08:20;3.83;;;3.43;;
10465;SDS011;5280;42.600;23.556;2024-03-23T15:10:46;11.63;;;3.83;;
10465;SDS011;5280;42.600;23.556;2024-03-23T15:13:13;4.37;;;3.57;;
10465;SDS011;5280;42.600;23.556;2024-03-23T15:15:39;6.20;;;3.90;;
10465;SDS011;5280;42.600;23.556;2024-03-23T15:18:08;8.40;;;3.97;;
10465;SDS011;5280;42.600;23.556;2024-03-23T15:20:34;3.97;;;3.67;;
10465;SDS011;5280;42.600;23.556;2024-03-23T15:23:02;7.73;;;3.40;;
10465;SDS011;5280;42.600;23.556;2024-03-23T15:25:29;4.83;;;4.10;;
10465;SDS011;5280;42.600;23.556;2024-03-23T15:27:57;4.43;;;3.57;;
10465;SDS011;5280;42.600;23.556;2024-03-23T15:30:24;3.80;;;3.20;;
10465;SDS011;5280;42.600;23.556;2024-03-23T15:32:51;5.70;;;3.30;;
10465;SDS011;5280;42.600;23.556;2024-03-23T15:35:17;5.40;;;3.40;;
10465;SDS011;5280;42.600;23.556;2024-03-23T15:37:46;5.13;;;3.20;;
10465;SDS011;5280;42.600;23.556;2024-03-23T15:40:12;6.47;;;3.30;;
10465;SDS011;5280;42.600;23.556;2024-03-23T15:42:40;6.87;;;3.20;;
10465;SDS011;5280;42.600;23.556;2024-03-23T15:45:06;3.87;;;3.20;;